Time;durP1;ratioP1;P1;durP2;ratioP2;P2;SDS_P1;SDS_P2;PMS_P1;PMS_P2;Temp;Humidity;BMP_temperature;BMP_pressure;BME280_temperature;BME280_humidity;BME280_pressure;Samples;Min_cycle;Max_cycle;Signal;HPM_P1;HPM_P2
2021/08/22 00:00:51;;;;;;;;;;;;;;;14.51;58.61;101216.71;1694735;83;20212;-78
2021/08/22 00:03:17;;;;;;;;;;;;;;;14.46;58.67;101218.56;1697354;83;20203;-78
2021/08/22 00:05:44;;;;;;;;;;;;;;;14.42;58.68;101221.67;1700848;84;20483;-78
2021/08/22 00:08:11;;;;;;;;;;;;;;;14.36;58.75;101223.08;1695218;83;20207;-78
2021/08/22 00:10:38;;;;;;;;;;;;;;;14.30;58.87;101216.70;1694552;83;20192;-79
2021/08/22 00:13:04;;;;;;;;;;;;;;;14.27;58.94;101215.91;1681545;83;20155;-79
2021/08/22 00:15:30;;;;;;;;;;;;;;;14.22;58.99;101211.66;1701304;83;20201;-79
2021/08/22 00:17:56;;;;;;;;;;;;;;;14.14;58.83;101208.81;1707359;83;20192;-79
2021/08/22 00:20:23;;;;;;;;;;;;;;;14.04;58.84;101217.70;1697791;83;20184;-79
2021/08/22 00:22:57;;;;;;;;;;;;;;;13.92;58.88;101212.33;1680934;83;20170;-79
2021/08/22 00:25:22;;;;;;;;;;;;;;;13.82;59.12;101216.00;1705424;83;20235;-79
2021/08/22 00:27:49;;;;;;;;;;;;;;;13.80;59.24;101218.62;1689948;83;20208;-78
2021/08/22 00:30:17;;;;;;;;;;;;;;;13.77;59.25;101216.09;1703581;83;20179;-78
2021/08/22 00:32:43;;;;;;;;;;;;;;;13.75;59.29;101213.11;1690964;83;20349;-78
2021/08/22 00:35:10;;;;;;;;;;;;;;;13.73;59.40;101210.98;1692166;83;20218;-78
2021/08/22 00:37:36;;;;;;;;;;;;;;;13.68;59.37;101211.06;1695887;83;20185;-78
2021/08/22 00:40:02;;;;;;;;;;;;;;;13.64;59.50;101210.71;1685063;83;20197;-78
2021/08/22 00:42:35;;;;;;;;;;;;;;;13.63;59.60;101215.94;1689751;84;20195;-78
2021/08/22 00:45:07;;;;;;;;;;;;;;;13.59;59.55;101213.39;1683387;84;20094;-78
2021/08/22 00:47:34;;;;;;;;;;;;;;;13.57;59.51;101219.50;1690473;84;20127;-78
2021/08/22 00:50:00;;;;;;;;;;;;;;;13.54;59.55;101220.42;1646691;84;20099;-78
2021/08/22 00:52:32;;;;;;;;;;;;;;;13.50;59.59;101220.09;1693756;83;20087;-78
2021/08/22 00:54:58;;;;;;;;;;;;;;;13.44;59.63;101212.85;1683798;84;20125;-78
2021/08/22 00:57:24;;;;;;;;;;;;;;;13.40;59.77;101215.09;1685638;84;20107;-78
2021/08/22 00:59:50;;;;;;;;;;;;;;;13.37;59.81;101213.84;1685929;84;20105;-78
2021/08/22 01:02:23;;;;;;;;;;;;;;;13.34;59.83;101210.00;1691705;83;20092;-78
2021/08/22 01:04:55;;;;;;;;;;;;;;;13.32;59.93;101206.13;1696579;83;20097;-79
2021/08/22 01:07:24;;;;;;;;;;;;;;;13.29;59.91;101211.38;1679701;84;20127;-79
2021/08/22 01:09:52;;;;;;;;;;;;;;;13.25;59.88;101204.08;1685710;84;20110;-79
2021/08/22 01:12:27;;;;;;;;;;;;;;;13.23;59.94;101206.29;1684373;84;20111;-79
2021/08/22 01:14:57;;;;;;;;;;;;;;;13.20;59.93;101211.09;1678283;84;20102;-79
2021/08/22 01:17:27;;;;;;;;;;;;;;;13.16;59.97;101205.54;1670381;83;20141;-79
2021/08/22 01:20:03;;;;;;;;;;;;;;;13.13;60.11;101208.59;1683453;84;20108;-79
2021/08/22 01:22:41;;;;;;;;;;;;;;;13.09;60.15;101202.59;1693071;84;20113;-79
2021/08/22 01:25:11;;;;;;;;;;;;;;;13.06;60.19;101201.34;1684254;84;20133;-79
2021/08/22 01:27:39;;;;;;;;;;;;;;;13.01;60.25;101201.01;1675896;83;618576;-79
2021/08/22 01:30:13;;;;;;;;;;;;;;;12.97;60.25;101201.97;1711239;82;20128;-79
2021/08/22 01:32:39;;;;;;;;;;;;;;;12.92;60.29;101198.16;1693295;83;20541;-79
2021/08/22 01:35:08;;;;;;;;;;;;;;;12.87;60.37;101200.83;1690409;83;20133;-79
2021/08/22 01:37:35;;;;;;;;;;;;;;;12.85;60.39;101193.94;1701651;83;20158;-79
2021/08/22 01:40:03;;;;;;;;;;;;;;;12.82;60.45;101192.25;1693737;84;20204;-79
2021/08/22 01:42:30;;;;;;;;;;;;;;;12.80;60.55;101189.27;1681190;83;20204;-79
2021/08/22 01:44:58;;;;;;;;;;;;;;;12.77;60.59;101190.17;1690279;83;20188;-79
2021/08/22 01:47:24;;;;;;;;;;;;;;;12.76;60.60;101187.59;1677955;83;20227;-79
2021/08/22 01:49:51;;;;;;;;;;;;;;;12.74;60.55;101186.33;1694004;83;20179;-79
2021/08/22 01:52:18;;;;;;;;;;;;;;;12.71;60.56;101179.88;1692421;83;20120;-79
2021/08/22 01:54:44;;;;;;;;;;;;;;;12.67;60.61;101179.95;1673890;83;20196;-79
2021/08/22 01:57:10;;;;;;;;;;;;;;;12.65;60.64;101179.13;1671482;83;20184;-78
2021/08/22 01:59:37;;;;;;;;;;;;;;;12.62;60.73;101181.33;1683643;83;20572;-78
2021/08/22 02:02:04;;;;;;;;;;;;;;;12.59;60.77;101176.18;1692520;83;20204;-78
2021/08/22 02:04:50;;;;;;;;;;;;;;;12.54;60.68;101174.95;1692084;83;20124;-78
2021/08/22 02:07:18;;;;;;;;;;;;;;;12.51;60.78;101175.44;1695854;84;20370;-78
2021/08/22 02:10:00;;;;;;;;;;;;;;;12.51;60.89;101184.08;1687337;83;20204;-78
2021/08/22 02:12:27;;;;;;;;;;;;;;;12.50;60.90;101182.80;1693544;83;20291;-78
2021/08/22 02:15:06;;;;;;;;;;;;;;;12.46;60.96;101175.98;1683555;84;20153;-78
2021/08/22 02:17:34;;;;;;;;;;;;;;;12.45;61.05;101182.90;1693111;83;20212;-78
2021/08/22 02:20:02;;;;;;;;;;;;;;;12.45;61.08;101179.01;1676352;83;20203;-78
2021/08/22 02:22:29;;;;;;;;;;;;;;;12.44;61.18;101175.14;1692748;83;20209;-78
2021/08/22 02:24:57;;;;;;;;;;;;;;;12.44;61.12;101177.30;1686881;84;20358;-78
2021/08/22 02:27:23;;;;;;;;;;;;;;;12.44;61.03;101173.84;1689558;83;20208;-78
2021/08/22 02:29:51;;;;;;;;;;;;;;;12.36;61.10;101171.36;1692424;84;20160;-78
2021/08/22 02:32:18;;;;;;;;;;;;;;;12.34;61.20;101165.78;1688016;83;20111;-79
2021/08/22 02:34:44;;;;;;;;;;;;;;;12.33;61.23;101168.81;1665605;85;20099;-79
2021/08/22 02:37:10;;;;;;;;;;;;;;;12.32;61.28;101164.50;1692107;83;20137;-79
2021/08/22 02:39:37;;;;;;;;;;;;;;;12.30;61.31;101166.70;1705106;84;20106;-79
2021/08/22 02:42:06;;;;;;;;;;;;;;;12.30;61.37;101164.11;1689886;83;20271;-79
2021/08/22 02:44:32;;;;;;;;;;;;;;;12.28;61.42;101166.72;1650913;85;20332;-79
2021/08/22 02:46:58;;;;;;;;;;;;;;;12.25;61.38;101168.92;1658303;85;20137;-79
2021/08/22 02:49:25;;;;;;;;;;;;;;;12.20;61.37;101159.05;1646420;87;20169;-79
2021/08/22 02:51:51;;;;;;;;;;;;;;;12.16;61.47;101156.52;1648770;85;20111;-79
2021/08/22 02:54:17;;;;;;;;;;;;;;;12.13;61.58;101156.13;1659665;86;20104;-79
2021/08/22 02:56:43;;;;;;;;;;;;;;;12.11;61.56;101151.40;1645226;85;20133;-79
2021/08/22 02:59:09;;;;;;;;;;;;;;;12.08;61.63;101149.28;1641513;85;20111;-78
2021/08/22 03:01:35;;;;;;;;;;;;;;;12.07;61.61;101151.45;1657366;85;20124;-78
2021/08/22 03:04:01;;;;;;;;;;;;;;;12.02;61.67;101152.81;1654459;85;21289;-78
2021/08/22 03:06:33;;;;;;;;;;;;;;;12.01;61.75;101145.06;1652450;86;20128;-78
2021/08/22 03:09:01;;;;;;;;;;;;;;;12.00;61.75;101145.50;1662301;85;20657;-79
2021/08/22 03:11:27;;;;;;;;;;;;;;;11.97;61.75;101149.42;1646279;86;20103;-79
2021/08/22 03:13:53;;;;;;;;;;;;;;;11.96;61.83;101149.48;1661481;86;20598;-79
2021/08/22 03:16:19;;;;;;;;;;;;;;;11.92;61.88;101152.11;1653185;85;20196;-79
2021/08/22 03:18:45;;;;;;;;;;;;;;;11.93;61.97;101149.94;1646480;85;20782;-79
2021/08/22 03:21:11;;;;;;;;;;;;;;;11.92;62.04;101150.81;1649557;86;20192;-79
2021/08/22 03:23:37;;;;;;;;;;;;;;;11.92;62.11;101148.66;1646584;84;310992;-79
2021/08/22 03:26:03;;;;;;;;;;;;;;;11.92;62.10;101144.34;1648546;86;20401;-79
2021/08/22 03:28:29;;;;;;;;;;;;;;;11.88;61.85;101146.98;1640076;86;20214;-79
2021/08/22 03:30:55;;;;;;;;;;;;;;;11.82;62.01;101142.73;1644451;86;20363;-79
2021/08/22 03:33:34;;;;;;;;;;;;;;;11.83;62.14;101144.89;1633378;86;20182;-78
2021/08/22 03:36:00;;;;;;;;;;;;;;;11.85;62.25;101152.20;1643358;86;20188;-78
2021/08/22 03:38:26;;;;;;;;;;;;;;;11.87;62.27;101146.13;1649860;85;20163;-78
2021/08/22 03:40:52;;;;;;;;;;;;;;;11.88;62.33;101143.95;1638222;86;20422;-78
2021/08/22 03:43:18;;;;;;;;;;;;;;;11.89;62.42;101143.52;1652747;86;20184;-78
2021/08/22 03:45:44;;;;;;;;;;;;;;;11.91;62.46;101140.03;1636739;86;21436;-78
2021/08/22 03:48:10;;;;;;;;;;;;;;;11.96;62.52;101144.30;1654470;85;20357;-79
2021/08/22 03:50:36;;;;;;;;;;;;;;;11.98;62.53;101148.55;1651376;86;20767;-79
2021/08/22 03:53:03;;;;;;;;;;;;;;;12.02;62.56;101142.89;1640427;86;20206;-79
2021/08/22 03:55:29;;;;;;;;;;;;;;;12.05;62.57;101148.03;1635119;85;20115;-79
2021/08/22 03:57:55;;;;;;;;;;;;;;;12.08;62.59;101149.28;1653402;86;20372;-78
2021/08/22 04:00:21;;;;;;;;;;;;;;;12.10;62.69;101142.34;1644039;86;20228;-78
2021/08/22 04:02:47;;;;;;;;;;;;;;;12.11;62.84;101143.62;1652347;86;20486;-80
2021/08/22 04:05:14;;;;;;;;;;;;;;;12.16;62.91;101148.74;1644951;86;20509;-79
2021/08/22 04:07:47;;;;;;;;;;;;;;;12.20;62.93;101140.05;1660782;86;20205;-79
2021/08/22 04:10:08;;;;;;;;;;;;;;;12.26;62.98;101142.55;1689306;82;20226;-79
2021/08/22 04:12:36;;;;;;;;;;;;;;;12.32;63.02;101148.95;1677405;84;20204;-79
2021/08/22 04:15:02;;;;;;;;;;;;;;;12.37;63.03;101141.95;1685999;84;20177;-78
2021/08/22 04:17:28;;;;;;;;;;;;;;;12.42;63.01;101147.93;1680131;84;20180;-78
2021/08/22 04:19:54;;;;;;;;;;;;;;;12.47;63.04;101148.72;1671432;84;20309;-78
2021/08/22 04:22:20;;;;;;;;;;;;;;;12.51;63.09;101150.35;1681869;84;20194;-78
2021/08/22 04:24:54;;;;;;;;;;;;;;;12.57;63.14;101151.56;1690906;84;20331;-79
2021/08/22 04:27:20;;;;;;;;;;;;;;;12.63;63.17;101148.02;1681132;84;20199;-79
2021/08/22 04:29:46;;;;;;;;;;;;;;;12.68;63.23;101146.20;1683714;84;20323;-79
2021/08/22 04:32:12;;;;;;;;;;;;;;;12.73;63.22;101142.23;1672155;84;20720;-79
2021/08/22 04:34:38;;;;;;;;;;;;;;;12.80;63.24;101147.74;1682274;84;20180;-79
2021/08/22 04:37:04;;;;;;;;;;;;;;;12.83;63.29;101153.73;1678601;84;20185;-79
2021/08/22 04:39:30;;;;;;;;;;;;;;;12.89;63.36;101151.48;1682991;82;20463;-79
2021/08/22 04:41:56;;;;;;;;;;;;;;;12.93;63.40;101147.52;1703161;83;20193;-79
2021/08/22 04:44:22;;;;;;;;;;;;;;;12.98;63.41;101150.03;1713592;83;20211;-79
2021/08/22 04:46:48;;;;;;;;;;;;;;;13.02;63.43;101143.88;1709361;83;20203;-79
2021/08/22 04:49:14;;;;;;;;;;;;;;;13.07;63.50;101145.09;1721811;83;20179;-79
2021/08/22 04:51:40;;;;;;;;;;;;;;;13.13;63.53;101144.53;1705818;83;20810;-79
2021/08/22 04:54:06;;;;;;;;;;;;;;;13.16;63.48;101144.52;1714782;83;20172;-79
2021/08/22 04:56:32;;;;;;;;;;;;;;;13.20;63.65;101138.38;1701934;83;20280;-79
2021/08/22 04:58:59;;;;;;;;;;;;;;;13.27;63.67;101141.72;1697501;83;20527;-78
2021/08/22 05:01:26;;;;;;;;;;;;;;;13.34;63.75;101142.47;1702620;83;20280;-78
2021/08/22 05:03:52;;;;;;;;;;;;;;;13.40;63.68;101140.61;1696340;83;20280;-78
2021/08/22 05:06:18;;;;;;;;;;;;;;;13.45;63.70;101143.13;1712837;83;20311;-78
2021/08/22 05:08:44;;;;;;;;;;;;;;;13.52;63.81;101144.23;1701950;83;21476;-78
2021/08/22 05:11:10;;;;;;;;;;;;;;;13.57;63.74;101138.95;1714347;83;20286;-78
2021/08/22 05:13:37;;;;;;;;;;;;;;;13.65;63.89;101144.00;1708921;83;20215;-78
2021/08/22 05:16:05;;;;;;;;;;;;;;;13.75;63.91;101141.18;1689948;83;20162;-79
2021/08/22 05:18:37;;;;;;;;;;;;;;;13.88;63.96;101138.74;1712556;83;20199;-79
2021/08/22 05:21:03;;;;;;;;;;;;;;;14.03;63.86;101138.00;1693262;83;20124;-79
2021/08/22 05:23:31;;;;;;;;;;;;;;;14.19;64.03;101141.50;1714755;83;20129;-79
2021/08/22 05:25:57;;;;;;;;;;;;;;;14.47;64.21;101140.91;1702377;83;20207;-79
2021/08/22 05:28:24;;;;;;;;;;;;;;;14.81;64.04;101141.77;1699435;83;20160;-79
2021/08/22 05:30:50;;;;;;;;;;;;;;;15.06;63.87;101138.55;1696141;83;20200;-79
2021/08/22 05:33:19;;;;;;;;;;;;;;;15.27;63.78;101132.74;1716168;83;20196;-79
2021/08/22 05:35:45;;;;;;;;;;;;;;;15.53;63.73;101138.09;1698208;83;20282;-79
2021/08/22 05:38:11;;;;;;;;;;;;;;;15.73;63.67;101136.23;1713435;83;20178;-79
2021/08/22 05:40:37;;;;;;;;;;;;;;;15.94;63.48;101135.20;1712290;83;20267;-79
2021/08/22 05:43:03;;;;;;;;;;;;;;;16.08;63.39;101136.95;1693932;82;20202;-79
2021/08/22 05:45:29;;;;;;;;;;;;;;;16.23;63.31;101134.70;1691743;83;20088;-79
2021/08/22 05:47:55;;;;;;;;;;;;;;;16.33;63.22;101132.66;1700521;82;20179;-79
2021/08/22 05:50:21;;;;;;;;;;;;;;;16.44;63.22;101133.62;1683500;82;20841;-79
2021/08/22 05:52:47;;;;;;;;;;;;;;;16.61;63.25;101135.70;1703721;82;20291;-79
2021/08/22 05:55:16;;;;;;;;;;;;;;;16.83;63.37;101138.86;1682183;83;20485;-79
2021/08/22 05:57:43;;;;;;;;;;;;;;;17.04;63.17;101135.98;1697336;82;20155;-78
2021/08/22 06:00:10;;;;;;;;;;;;;;;17.18;62.94;101138.94;1692684;82;20150;-79
2021/08/22 06:02:37;;;;;;;;;;;;;;;17.26;62.76;101135.20;1694922;83;20099;-79
2021/08/22 06:05:05;;;;;;;;;;;;;;;17.30;62.84;101132.88;1687299;83;20111;-79
2021/08/22 06:07:32;;;;;;;;;;;;;;;17.33;62.70;101132.77;1703443;83;20109;-79
2021/08/22 06:09:58;;;;;;;;;;;;;;;17.32;62.66;101134.53;1702304;82;20087;-79
2021/08/22 06:12:25;;;;;;;;;;;;;;;17.35;62.65;101132.27;1694870;82;20738;-79
2021/08/22 06:14:51;;;;;;;;;;;;;;;17.39;62.69;101135.17;1698771;83;20097;-79
2021/08/22 06:17:17;;;;;;;;;;;;;;;17.45;62.64;101142.34;1692628;83;20479;-79
2021/08/22 06:19:43;;;;;;;;;;;;;;;17.48;62.71;101134.38;1694256;83;20222;-79
2021/08/22 06:22:09;;;;;;;;;;;;;;;17.56;62.66;101132.80;1692618;83;20234;-79
2021/08/22 06:24:38;;;;;;;;;;;;;;;17.59;62.55;101133.99;1678051;83;20182;-79
2021/08/22 06:27:04;;;;;;;;;;;;;;;17.67;62.64;101128.06;1691684;83;20155;-79
2021/08/22 06:29:30;;;;;;;;;;;;;;;17.79;62.81;101121.03;1681005;83;20608;-79
2021/08/22 06:31:57;;;;;;;;;;;;;;;18.15;62.85;101120.08;1673630;83;20454;-79
2021/08/22 06:34:23;;;;;;;;;;;;;;;18.47;62.52;101127.08;1693116;83;20196;-78
2021/08/22 06:36:49;;;;;;;;;;;;;;;18.60;62.22;101123.09;1609168;87;20167;-77
2021/08/22 06:39:15;;;;;;;;;;;;;;;18.65;62.21;101124.20;1644946;85;20273;-77
2021/08/22 06:41:41;;;;;;;;;;;;;;;18.74;62.20;101126.41;1650273;86;20209;-77
2021/08/22 06:44:07;;;;;;;;;;;;;;;18.81;62.16;101119.55;1642157;86;20339;-77
2021/08/22 06:46:33;;;;;;;;;;;;;;;18.91;62.26;101119.16;1636365;86;20581;-77
2021/08/22 06:48:59;;;;;;;;;;;;;;;19.05;62.14;101118.97;1634798;86;20210;-77
2021/08/22 06:51:25;;;;;;;;;;;;;;;19.21;62.08;101119.62;1636271;86;20394;-78
2021/08/22 06:53:51;;;;;;;;;;;;;;;19.27;61.98;101114.92;1637136;86;20571;-78
2021/08/22 06:56:17;;;;;;;;;;;;;;;19.52;62.10;101116.03;1637034;86;20132;-79
2021/08/22 06:58:44;;;;;;;;;;;;;;;19.71;61.96;101113.43;1637253;86;20172;-79
2021/08/22 07:01:11;;;;;;;;;;;;;;;19.89;61.87;101113.86;1635035;86;21035;-75
2021/08/22 07:03:37;;;;;;;;;;;;;;;20.12;61.93;101108.38;1639111;86;20172;-75
2021/08/22 07:06:04;;;;;;;;;;;;;;;20.38;61.73;101115.02;1636260;86;20625;-77
2021/08/22 07:08:30;;;;;;;;;;;;;;;20.55;61.59;101115.50;1639891;86;20212;-76
2021/08/22 07:10:56;;;;;;;;;;;;;;;20.58;61.38;101117.98;1638834;86;20123;-76
2021/08/22 07:13:22;;;;;;;;;;;;;;;20.64;61.34;101111.11;1636532;86;20112;-76
2021/08/22 07:15:48;;;;;;;;;;;;;;;20.68;61.38;101107.40;1636678;86;20819;-76
2021/08/22 07:18:14;;;;;;;;;;;;;;;20.69;61.27;101111.73;1635631;85;20559;-76
2021/08/22 07:20:40;;;;;;;;;;;;;;;20.78;61.21;101109.10;1627131;87;20117;-76
2021/08/22 07:23:06;;;;;;;;;;;;;;;20.85;61.22;101106.52;1664610;84;20564;-76
2021/08/22 07:25:33;;;;;;;;;;;;;;;20.95;61.11;101105.13;1691142;83;20099;-76
2021/08/22 07:27:59;;;;;;;;;;;;;;;21.05;60.96;101103.73;1674562;83;20571;-76
2021/08/22 07:30:26;;;;;;;;;;;;;;;21.09;61.01;101103.95;1669230;84;20132;-76
2021/08/22 07:32:53;;;;;;;;;;;;;;;21.19;60.97;101096.44;1691925;84;20558;-76
2021/08/22 07:35:19;;;;;;;;;;;;;;;21.40;61.09;101099.72;1701718;83;20528;-76
2021/08/22 07:37:45;;;;;;;;;;;;;;;21.80;61.04;101105.85;1690350;83;20131;-76
2021/08/22 07:40:13;;;;;;;;;;;;;;;22.02;60.62;101105.52;1689433;83;20486;-77
2021/08/22 07:42:39;;;;;;;;;;;;;;;22.30;60.61;101102.66;1705085;82;20448;-77
2021/08/22 07:45:06;;;;;;;;;;;;;;;22.56;60.29;101105.93;1702422;83;20207;-77
2021/08/22 07:47:35;;;;;;;;;;;;;;;22.67;60.31;101097.39;1668395;84;20580;-77
2021/08/22 07:50:01;;;;;;;;;;;;;;;22.96;60.34;101100.95;1688388;83;20286;-77
2021/08/22 07:52:27;;;;;;;;;;;;;;;23.16;60.15;101089.20;1675138;83;20541;-77
2021/08/22 07:54:53;;;;;;;;;;;;;;;23.44;60.01;101095.30;1689243;83;20462;-77
2021/08/22 07:57:19;;;;;;;;;;;;;;;23.72;59.75;101099.75;1687497;84;20573;-77
2021/08/22 07:59:46;;;;;;;;;;;;;;;24.00;59.85;101106.73;1684027;84;20131;-77
2021/08/22 08:02:12;;;;;;;;;;;;;;;24.12;59.25;101100.29;1688132;83;20579;-77
2021/08/22 08:04:39;;;;;;;;;;;;;;;24.27;59.42;101105.46;1676683;84;20426;-77
2021/08/22 08:07:05;;;;;;;;;;;;;;;24.27;59.16;101108.58;1700345;83;20531;-77
2021/08/22 08:09:32;;;;;;;;;;;;;;;24.04;58.97;101111.35;1684703;84;20249;-77
2021/08/22 08:11:58;;;;;;;;;;;;;;;24.01;59.59;101107.11;1692639;84;20428;-77
2021/08/22 08:14:24;;;;;;;;;;;;;;;24.02;59.06;101105.31;1691093;84;20415;-77
2021/08/22 08:16:51;;;;;;;;;;;;;;;23.92;58.89;101105.05;1691648;83;20417;-77
2021/08/22 08:19:17;;;;;;;;;;;;;;;23.88;59.00;101101.42;1693773;84;20476;-77
2021/08/22 08:21:43;;;;;;;;;;;;;;;23.76;58.49;101101.72;1695766;84;20270;-77
2021/08/22 08:24:09;;;;;;;;;;;;;;;23.79;58.63;101099.36;1682663;83;20171;-77
2021/08/22 08:26:36;;;;;;;;;;;;;;;23.92;58.41;101101.56;1696762;84;20803;-77
2021/08/22 08:29:02;;;;;;;;;;;;;;;24.02;58.39;101088.99;1701362;83;20121;-77
2021/08/22 08:31:28;;;;;;;;;;;;;;;24.08;58.00;101091.71;1676925;83;20121;-77
2021/08/22 08:34:00;;;;;;;;;;;;;;;24.09;58.01;101090.77;1682363;83;20593;-77
2021/08/22 08:36:26;;;;;;;;;;;;;;;24.10;57.90;101096.42;1671294;83;20206;-77
2021/08/22 08:38:52;;;;;;;;;;;;;;;24.08;57.63;101089.07;1678785;84;20538;-77
2021/08/22 08:41:18;;;;;;;;;;;;;;;24.02;57.48;101088.14;1687518;84;20516;-77
2021/08/22 08:43:47;;;;;;;;;;;;;;;23.88;57.37;101094.34;1681745;83;20272;-77
2021/08/22 08:46:21;;;;;;;;;;;;;;;23.80;57.57;101089.17;1683171;84;20136;-77
2021/08/22 08:49:09;;;;;;;;;;;;;;;23.94;57.55;101094.39;1679618;84;21137;-77
2021/08/22 08:51:51;;;;;;;;;;;;;;;24.17;57.32;101092.44;1681912;83;21044;-77
2021/08/22 08:54:36;;;;;;;;;;;;;;;24.48;57.17;101095.24;1680034;84;20444;-77
2021/08/22 08:57:05;;;;;;;;;;;;;;;24.85;56.99;101106.01;1690319;84;20545;-78
2021/08/22 08:59:38;;;;;;;;;;;;;;;25.22;56.75;101101.69;1681015;83;20505;-78
2021/08/22 09:02:04;;;;;;;;;;;;;;;25.43;56.76;101098.88;1688648;83;20649;-78
2021/08/22 09:04:41;;;;;;;;;;;;;;;25.52;57.02;101094.70;1690330;83;20188;-78
2021/08/22 09:07:26;;;;;;;;;;;;;;;25.57;56.49;101093.89;1699322;83;20506;-78
2021/08/22 09:10:19;;;;;;;;;;;;;;;25.60;56.75;101098.50;1678300;84;20577;-77
2021/08/22 09:13:01;;;;;;;;;;;;;;;25.34;56.00;101099.03;1675592;84;20467;-77
2021/08/22 09:16:05;;;;;;;;;;;;;;;25.20;55.98;101093.01;1676610;84;20426;-77
2021/08/22 09:18:59;;;;;;;;;;;;;;;25.03;55.62;101092.84;1693734;83;20483;-78
2021/08/22 09:21:53;;;;;;;;;;;;;;;24.87;56.01;101090.41;1666213;84;20196;-79
2021/08/22 09:24:44;;;;;;;;;;;;;;;24.83;55.55;101090.23;1695587;83;20228;-79
2021/08/22 09:27:44;;;;;;;;;;;;;;;24.91;55.35;101080.45;1690201;83;20442;-79
2021/08/22 09:30:40;;;;;;;;;;;;;;;24.97;55.14;101083.53;1684883;84;20251;-79
2021/08/22 09:33:44;;;;;;;;;;;;;;;25.01;54.95;101076.23;1654034;84;20257;-79
2021/08/22 09:36:32;;;;;;;;;;;;;;;25.07;54.82;101072.69;1673248;83;20231;-79
2021/08/22 09:39:31;;;;;;;;;;;;;;;25.16;54.81;101073.00;1700322;82;20196;-79
2021/08/22 09:42:34;;;;;;;;;;;;;;;25.13;54.46;101069.24;1685242;83;20195;-79
2021/08/22 09:45:29;;;;;;;;;;;;;;;25.14;54.43;101074.43;1668381;84;20214;-79
2021/08/22 09:48:28;;;;;;;;;;;;;;;25.18;54.24;101069.77;1684573;84;20152;-79
2021/08/22 09:51:30;;;;;;;;;;;;;;;25.25;54.28;101070.56;1669028;84;20191;-79
2021/08/22 09:54:32;;;;;;;;;;;;;;;25.24;54.03;101068.02;1672587;84;20219;-79
2021/08/22 09:57:23;;;;;;;;;;;;;;;25.31;53.90;101061.34;1669190;84;20191;-79
2021/08/22 10:00:13;;;;;;;;;;;;;;;25.25;53.83;101066.59;1679239;84;20184;-78
2021/08/22 10:02:46;;;;;;;;;;;;;;;25.25;53.78;101058.65;1682770;84;20370;-78
2021/08/22 10:05:40;;;;;;;;;;;;;;;25.34;53.71;101061.13;1694704;84;20213;-78
2021/08/22 10:08:16;;;;;;;;;;;;;;;25.32;53.34;101058.59;1654435;86;20225;-79
2021/08/22 10:10:46;;;;;;;;;;;;;;;25.35;53.48;101058.38;1652917;86;20197;-79
2021/08/22 10:13:14;;;;;;;;;;;;;;;25.45;53.18;101065.19;1653393;86;20233;-79
2021/08/22 10:15:44;;;;;;;;;;;;;;;25.50;53.16;101059.53;1658973;85;20210;-79
2021/08/22 10:18:10;;;;;;;;;;;;;;;25.50;53.25;101065.67;1659573;85;20189;-79
2021/08/22 10:21:05;;;;;;;;;;;;;;;25.48;53.18;101061.44;1654037;85;20145;-79
2021/08/22 10:23:42;;;;;;;;;;;;;;;25.48;52.89;101056.99;1650178;86;20326;-79
2021/08/22 10:26:47;;;;;;;;;;;;;;;25.46;52.78;101056.77;1643171;85;20209;-79
2021/08/22 10:29:22;;;;;;;;;;;;;;;25.53;52.71;101057.99;1653262;86;20186;-79
2021/08/22 10:31:58;;;;;;;;;;;;;;;25.59;52.56;101053.10;1654533;85;20191;-79
2021/08/22 10:34:26;;;;;;;;;;;;;;;25.61;52.46;101049.86;1653911;86;20218;-79
2021/08/22 10:36:53;;;;;;;;;;;;;;;25.58;52.37;101050.56;1654563;86;20204;-79
2021/08/22 10:39:26;;;;;;;;;;;;;;;25.53;52.41;101046.08;1661310;85;20190;-79
2021/08/22 10:41:54;;;;;;;;;;;;;;;25.52;52.36;101037.77;1674318;84;20194;-79
2021/08/22 10:44:38;;;;;;;;;;;;;;;25.65;52.47;101038.13;1685249;84;20197;-79
2021/08/22 10:47:06;;;;;;;;;;;;;;;25.79;52.22;101031.83;1685917;84;20101;-79
2021/08/22 10:49:57;;;;;;;;;;;;;;;25.85;52.34;101030.53;1664656;84;20109;-79
2021/08/22 10:52:30;;;;;;;;;;;;;;;25.83;51.88;101031.13;1671225;84;20151;-79
2021/08/22 10:55:15;;;;;;;;;;;;;;;25.77;51.90;101033.74;1673077;84;20129;-79
2021/08/22 10:57:50;;;;;;;;;;;;;;;25.77;51.91;101032.90;1677220;84;20116;-79
2021/08/22 11:00:22;;;;;;;;;;;;;;;25.71;51.76;101039.01;1678301;84;20137;-79
2021/08/22 11:02:51;;;;;;;;;;;;;;;25.68;51.94;101034.41;1669953;84;20112;-79
2021/08/22 11:05:19;;;;;;;;;;;;;;;25.71;51.70;101031.06;1674081;83;20105;-79
2021/08/22 11:07:52;;;;;;;;;;;;;;;25.72;51.55;101026.13;1681887;84;20102;-79
2021/08/22 11:10:21;;;;;;;;;;;;;;;25.69;51.54;101025.03;1670629;84;20131;-79
2021/08/22 11:12:49;;;;;;;;;;;;;;;25.72;51.56;101016.86;1669679;83;20125;-79
2021/08/22 11:15:29;;;;;;;;;;;;;;;25.73;51.43;101021.20;1643372;86;20113;-79
2021/08/22 11:17:57;;;;;;;;;;;;;;;25.68;51.26;101020.69;1656237;85;20171;-80
2021/08/22 11:20:28;;;;;;;;;;;;;;;25.60;51.25;101022.16;1638755;86;20144;-80
2021/08/22 11:23:05;;;;;;;;;;;;;;;25.56;51.36;101024.19;1650361;86;20100;-79
2021/08/22 11:25:32;;;;;;;;;;;;;;;25.52;51.16;101016.58;1659016;85;20089;-79
2021/08/22 11:28:10;;;;;;;;;;;;;;;25.45;51.14;101012.70;1640235;85;20104;-79
2021/08/22 11:30:38;;;;;;;;;;;;;;;25.42;51.15;101007.16;1644889;85;20122;-79
2021/08/22 11:33:05;;;;;;;;;;;;;;;25.43;51.18;101015.94;1646706;86;20164;-79
2021/08/22 11:35:35;;;;;;;;;;;;;;;25.45;51.02;101020.66;1638828;85;20175;-79
2021/08/22 11:38:01;;;;;;;;;;;;;;;25.45;51.01;101020.17;1620913;87;20447;-79
2021/08/22 11:40:39;;;;;;;;;;;;;;;25.42;50.94;101013.77;1678053;84;20089;-80
2021/08/22 11:43:07;;;;;;;;;;;;;;;25.34;50.74;101009.50;1686199;83;20111;-80
2021/08/22 11:45:39;;;;;;;;;;;;;;;25.34;50.93;101010.34;1689390;83;20175;-79
2021/08/22 11:48:10;;;;;;;;;;;;;;;25.43;50.88;101003.55;1695575;83;20207;-79
2021/08/22 11:50:36;;;;;;;;;;;;;;;25.53;50.87;101012.49;1711767;83;20093;-79
2021/08/22 11:53:04;;;;;;;;;;;;;;;25.67;50.84;101009.72;1696202;83;20111;-79
2021/08/22 11:55:32;;;;;;;;;;;;;;;25.80;50.64;101013.65;1699547;83;20109;-79
2021/08/22 11:58:16;;;;;;;;;;;;;;;25.84;50.60;101001.02;1684587;83;20099;-78
2021/08/22 12:00:52;;;;;;;;;;;;;;;25.96;50.60;101001.45;1682655;83;20090;-78
2021/08/22 12:03:23;;;;;;;;;;;;;;;26.09;50.75;101000.87;1697074;83;20095;-78
2021/08/22 12:05:56;;;;;;;;;;;;;;;26.28;50.55;100997.69;1698489;83;20108;-78
2021/08/22 12:08:23;;;;;;;;;;;;;;;26.40;50.33;101003.89;1694282;83;20143;-78
2021/08/22 12:10:49;;;;;;;;;;;;;;;26.48;50.44;100998.38;1695427;83;20092;-78
2021/08/22 12:13:22;;;;;;;;;;;;;;;26.54;50.22;100990.40;1686166;83;20109;-78
2021/08/22 12:15:50;;;;;;;;;;;;;;;26.55;50.04;100990.28;1685263;83;20458;-78
2021/08/22 12:18:33;;;;;;;;;;;;;;;26.57;50.12;100993.66;1696649;83;20121;-78
2021/08/22 12:21:11;;;;;;;;;;;;;;;26.61;50.11;100992.46;1691946;83;20135;-78
2021/08/22 12:23:37;;;;;;;;;;;;;;;26.72;49.95;100991.64;1692156;83;20095;-78
2021/08/22 12:26:25;;;;;;;;;;;;;;;26.84;50.00;100977.41;1630543;86;20091;-79
2021/08/22 12:29:09;;;;;;;;;;;;;;;27.02;50.00;100973.83;1691819;83;20105;-79
2021/08/22 12:31:40;;;;;;;;;;;;;;;27.15;49.75;100985.62;1683957;83;20134;-79
2021/08/22 12:34:09;;;;;;;;;;;;;;;27.13;49.50;100977.77;1689696;83;20123;-79
2021/08/22 12:36:37;;;;;;;;;;;;;;;27.17;49.60;100975.23;1689774;83;20111;-79
2021/08/22 12:39:05;;;;;;;;;;;;;;;27.25;49.47;100969.31;1688404;83;20125;-79
2021/08/22 12:41:40;;;;;;;;;;;;;;;27.34;49.25;100972.56;1685738;83;20226;-79
2021/08/22 12:44:08;;;;;;;;;;;;;;;27.31;49.33;100968.34;1671158;84;20096;-79
2021/08/22 12:46:35;;;;;;;;;;;;;;;27.22;49.23;100963.77;1674489;83;20135;-79
2021/08/22 12:49:01;;;;;;;;;;;;;;;27.22;49.42;100954.47;1675525;84;20096;-79
2021/08/22 12:51:28;;;;;;;;;;;;;;;27.26;49.40;100956.40;1679331;84;20096;-79